Time;durP1;ratioP1;P1;durP2;ratioP2;P2;SDS_P1;SDS_P2;PMS_P1;PMS_P2;Temp;Humidity;BMP_temperature;BMP_pressure;BME280_temperature;BME280_humidity;BME280_pressure;Samples;Min_cycle;Max_cycle;Signal;HPM_P1;HPM_P2
2022/12/23 00:02:18;;;;;;;;;1.75;1.75;;;;;13.74;86.35;99979.84;5016994;28;45486;-68
2022/12/23 00:04:43;;;;;;;;;0.25;0.25;;;;;13.75;86.78;99978.88;5034580;28;47462;-68
2022/12/23 00:07:08;;;;;;;;;0.00;0.00;;;;;13.76;86.58;99977.13;5034937;28;45320;-65
2022/12/23 00:09:34;;;;;;;;;1.00;1.00;;;;;13.77;86.63;99977.00;5035112;28;45293;-67
2022/12/23 00:17:27;;;;;;;;;1.75;1.75;;;;;13.79;86.67;99975.13;5034578;28;45490;-69
2022/12/23 00:19:52;;;;;;;;;0.25;0.25;;;;;13.80;86.47;99976.84;5016103;28;58321;-66
2022/12/23 00:22:17;;;;;;;;;2.00;2.00;;;;;13.79;86.67;99975.13;5034917;28;45355;-66
2022/12/23 00:24:43;;;;;;;;;1.00;1.00;;;;;13.76;86.64;99983.22;5034895;28;45324;-65
2022/12/23 00:27:08;;;;;;;;;2.75;2.75;;;;;13.76;86.99;99975.31;5034375;28;51308;-69
2022/12/23 00:29:33;;;;;;;;;0.50;0.50;;;;;13.77;87.34;99984.94;5034210;28;62018;-66
2022/12/23 00:31:58;;;;;;;;;0.00;0.00;;;;;13.71;87.53;99983.53;5037223;28;51516;-67
2022/12/23 00:34:24;;;;;;;;;1.50;1.50;;;;;13.70;88.02;99988.91;5035645;28;49583;-70
2022/12/23 00:36:49;;;;;;;;;1.00;1.00;;;;;13.68;88.05;99983.72;5036608;28;45802;-66
2022/12/23 00:44:42;;;;;;;;;2.00;2.00;;;;;13.67;88.74;99966.19;5037626;28;45683;-70
2022/12/23 00:49:40;;;;;;;;;2.75;2.75;;;;;13.68;88.57;99964.38;5037489;28;45336;-67
2022/12/23 00:49:53;;;;;;;;;2.00;2.00;;;;;13.71;88.48;99967.69;5037908;28;45333;-68
2022/12/23 00:52:18;;;;;;;;;2.00;2.00;;;;;13.73;88.59;99970.22;5038174;28;45507;-68
2022/12/23 00:54:43;;;;;;;;;2.00;2.00;;;;;13.72;88.78;99972.03;5037868;28;46031;-69
2022/12/23 00:57:09;;;;;;;;;1.00;1.00;;;;;13.81;88.18;99994.38;5019716;28;45612;-68
2022/12/23 00:59:34;;;;;;;;;2.00;0.50;;;;;13.81;88.49;100007.59;5038433;28;45345;-68
2022/12/23 01:07:48;;;;;;;;;1.00;1.00;;;;;13.75;89.87;100018.53;4957276;28;45456;-65
2022/12/23 01:10:13;;;;;;;;;1.00;1.00;;;;;13.68;90.53;100015.44;5004789;28;45423;-62
2022/12/23 01:12:38;;;;;;;;;1.25;1.25;;;;;13.69;91.17;100021.56;5037757;28;45499;-63
2022/12/23 01:15:04;;;;;;;;;1.00;1.00;;;;;13.65;91.68;100017.41;5037291;28;45325;-62
2022/12/23 01:17:30;;;;;;;;;0.25;0.25;;;;;13.62;91.94;100022.88;5037424;28;45769;-64
2022/12/23 01:19:55;;;;;;;;;1.00;1.00;;;;;13.59;92.40;100014.22;5037366;28;45382;-66
2022/12/23 01:22:20;;;;;;;;;1.00;1.00;;;;;13.56;92.96;100021.50;5036528;28;45573;-63
2022/12/23 01:24:46;;;;;;;;;1.00;1.00;;;;;13.56;93.12;100018.84;5037354;28;55276;-62
2022/12/23 01:27:11;;;;;;;;;2.75;2.75;;;;;13.55;93.08;100014.50;5037526;28;45315;-69
2022/12/23 01:29:36;;;;;;;;;1.75;1.50;;;;;13.54;93.59;100021.56;5037739;28;45238;-63
2022/12/23 01:32:02;;;;;;;;;2.75;2.75;;;;;13.45;93.83;100008.94;5037287;28;47535;-63
2022/12/23 01:34:28;;;;;;;;;3.00;3.00;;;;;13.54;93.73;100018.94;5037078;28;46012;-63
2022/12/23 01:36:53;;;;;;;;;2.00;2.00;;;;;13.54;94.03;100024.22;5037168;28;45309;-63
2022/12/23 01:39:18;;;;;;;;;4.00;4.00;;;;;13.55;93.72;100019.78;5038246;28;53675;-66
2022/12/23 01:44:54;;;;;;;;;3.00;3.00;;;;;13.59;94.18;100027.41;5036963;28;45734;-70
2022/12/23 01:47:43;;;;;;;;;2.00;2.00;;;;;13.61;94.52;100024.69;5036784;28;45359;-69
2022/12/23 01:50:14;;;;;;;;;2.75;2.75;;;;;13.60;94.40;100025.66;5025142;28;45331;-68
2022/12/23 01:53:05;;;;;;;;;1.00;1.00;;;;;13.59;94.72;100023.94;5037279;28;45227;-67
2022/12/23 01:55:46;;;;;;;;;1.00;1.00;;;;;13.57;94.54;100028.47;5010164;28;48046;-69
2022/12/23 01:58:53;;;;;;;;;1.00;1.00;;;;;13.55;94.96;100028.56;5018609;28;45363;-65
2022/12/23 02:04:08;;;;;;;;;2.00;2.00;;;;;13.52;95.18;100023.47;5037221;28;45322;-66
2022/12/23 02:09:28;;;;;;;;;1.50;1.50;;;;;13.53;95.27;100033.09;5036673;28;45436;-68
2022/12/23 02:12:27;;;;;;;;;2.00;2.00;;;;;13.53;95.27;100026.97;5036718;28;45449;-68
2022/12/23 02:18:11;;;;;;;;;2.00;2.00;;;;;13.52;95.40;100023.47;5036200;28;45910;-64
2022/12/23 02:21:03;;;;;;;;;2.25;2.25;;;;;13.51;95.36;100019.13;5036872;28;45431;-68
2022/12/23 02:24:06;;;;;;;;;2.75;1.75;;;;;13.54;95.38;100023.38;5018396;28;45284;-68
2022/12/23 02:27:00;;;;;;;;;1.00;1.00;;;;;13.56;95.43;100016.22;5036911;28;45677;-63
2022/12/23 02:29:47;;;;;;;;;2.00;2.00;;;;;13.57;95.08;100023.19;5036158;28;45301;-64
2022/12/23 02:32:26;;;;;;;;;2.00;2.00;;;;;13.56;95.09;100014.41;5036077;28;45357;-63
2022/12/23 02:35:12;;;;;;;;;2.00;2.00;;;;;13.54;94.81;100003.06;5036303;28;45375;-63
2022/12/23 02:37:56;;;;;;;;;0.00;0.00;;;;;13.55;94.64;100017.16;5036826;28;45345;-63
2022/12/23 02:40:38;;;;;;;;;1.00;1.00;;;;;13.56;94.37;100008.28;5036057;28;46272;-62
2022/12/23 02:43:37;;;;;;;;;0.75;0.75;;;;;13.50;93.92;100001.56;5036215;28;45240;-62
2022/12/23 02:46:08;;;;;;;;;1.00;1.00;;;;;13.52;93.62;100009.41;4967127;28;45337;-67
2022/12/23 02:48:43;;;;;;;;;1.00;1.00;;;;;13.55;93.31;100011.88;5036153;28;45305;-69
2022/12/23 02:51:13;;;;;;;;;1.00;1.00;;;;;13.53;92.94;100000.53;5036721;28;45449;-69
2022/12/23 02:53:48;;;;;;;;;1.00;1.00;;;;;13.54;92.76;99996.97;5036872;28;45351;-68
2022/12/23 02:56:16;;;;;;;;;2.00;2.00;;;;;13.52;92.69;99999.69;5036076;28;45358;-67
2022/12/23 02:58:54;;;;;;;;;2.00;2.00;;;;;13.55;92.28;100010.06;5036513;28;45368;-68
2022/12/23 03:01:23;;;;;;;;;1.75;1.00;;;;;13.54;91.93;100011.00;5035617;28;45480;-66
2022/12/23 03:03:49;;;;;;;;;0.00;0.00;;;;;13.51;91.75;100008.56;5035818;28;45439;-69
2022/12/23 03:06:26;;;;;;;;;1.50;1.50;;;;;13.55;91.53;100018.00;5035817;28;45262;-62
2022/12/23 03:08:55;;;;;;;;;1.00;1.00;;;;;13.52;91.23;100017.34;5035974;28;45301;-64
2022/12/23 03:11:24;;;;;;;;;1.00;1.00;;;;;13.48;91.12;100008.75;5037415;28;45415;-67
2022/12/23 03:14:07;;;;;;;;;1.50;1.25;;;;;13.51;90.89;100005.91;5036036;28;45289;-63
2022/12/23 03:16:52;;;;;;;;;2.50;1.00;;;;;13.51;90.91;100007.72;5035929;28;45491;-64
2022/12/23 03:19:23;;;;;;;;;2.00;2.00;;;;;13.50;90.97;100001.56;5018069;28;45321;-64
2022/12/23 03:22:02;;;;;;;;;1.75;1.75;;;;;13.50;90.75;99993.66;5035274;28;45355;-64
2022/12/23 03:24:43;;;;;;;;;0.00;0.00;;;;;13.50;90.53;99988.34;5035344;28;45289;-68
2022/12/23 03:27:17;;;;;;;;;1.00;1.00;;;;;13.50;90.51;99993.66;5035789;28;45308;-67
2022/12/23 03:29:54;;;;;;;;;1.50;1.50;;;;;13.51;90.00;99997.16;5035707;28;45348;-67
2022/12/23 03:32:23;;;;;;;;;1.50;1.50;;;;;13.51;90.22;100002.44;5034401;28;45328;-69
2022/12/23 03:34:52;;;;;;;;;1.50;1.50;;;;;13.46;89.81;99989.50;5035348;28;45340;-67
2022/12/23 03:37:22;;;;;;;;;2.00;2.00;;;;;13.50;89.84;99991.00;5035650;28;45299;-65
2022/12/23 03:39:53;;;;;;;;;1.00;1.00;;;;;13.42;89.91;99975.66;5035846;28;45440;-69
2022/12/23 03:42:32;;;;;;;;;1.50;1.50;;;;;13.48;89.77;99995.53;5035423;28;45190;-67
2022/12/23 03:45:02;;;;;;;;;0.75;0.75;;;;;13.47;89.40;99999.13;5035370;28;45328;-69
2022/12/23 03:47:34;;;;;;;;;2.00;2.00;;;;;13.48;89.59;100005.28;5017138;28;45250;-67
2022/12/23 03:50:05;;;;;;;;;1.00;1.00;;;;;13.48;89.82;99992.06;5035321;28;45230;-68
2022/12/23 03:52:40;;;;;;;;;2.00;2.00;;;;;13.47;89.54;99987.72;5035052;28;46470;-69
2022/12/23 03:55:13;;;;;;;;;3.75;2.50;;;;;13.46;89.66;99989.50;5034738;28;45421;-69
2022/12/23 03:58:19;;;;;;;;;1.00;1.00;;;;;13.47;89.52;99990.34;5036587;28;45348;-66
2022/12/23 04:00:53;;;;;;;;;2.75;2.75;;;;;13.43;89.49;99995.84;4963876;28;45439;-68
2022/12/23 04:03:53;;;;;;;;;1.50;1.50;;;;;13.46;89.52;100001.88;5034830;28;46296;-62
2022/12/23 04:06:20;;;;;;;;;2.00;2.00;;;;;13.46;89.52;100004.50;5034570;28;45459;-65
2022/12/23 04:08:48;;;;;;;;;0.00;0.00;;;;;13.44;89.77;99994.03;5034864;28;45269;-69
2022/12/23 04:11:13;;;;;;;;;2.00;2.00;;;;;13.41;89.60;99975.69;5035228;28;45775;-66
2022/12/23 04:13:38;;;;;;;;;2.50;2.50;;;;;13.43;89.80;99973.84;5036136;28;46222;-64
2022/12/23 04:16:05;;;;;;;;;2.75;2.75;;;;;13.37;89.55;99961.84;5038589;28;45343;-67
2022/12/23 04:18:30;;;;;;;;;1.00;1.00;;;;;13.38;89.64;99974.09;5038802;28;45443;-67
2022/12/23 04:20:55;;;;;;;;;1.50;1.25;;;;;13.36;89.96;99968.06;5038366;28;45614;-69
2022/12/23 04:23:21;;;;;;;;;1.00;1.00;;;;;13.35;89.76;99963.72;5037764;28;45601;-70
2022/12/23 04:25:46;;;;;;;;;1.75;1.75;;;;;13.35;90.02;99984.00;5038324;28;45495;-70
2022/12/23 04:28:11;;;;;;;;;6.00;6.00;;;;;13.31;90.16;99978.06;5038274;28;45468;-69
2022/12/23 04:30:36;;;;;;;;;1.50;1.00;;;;;13.33;90.00;99991.16;5037813;28;48793;-69
2022/12/23 04:33:02;;;;;;;;;1.75;1.75;;;;;13.33;90.26;99991.16;5038008;28;45367;-67
2022/12/23 04:35:28;;;;;;;;;1.00;1.00;;;;;13.33;90.33;99999.09;5037930;28;45459;-68
2022/12/23 04:37:53;;;;;;;;;1.00;1.00;;;;;13.32;90.21;99992.09;5038129;28;45364;-69
2022/12/23 04:40:19;;;;;;;;;1.25;1.25;;;;;13.29;90.65;99985.22;5038238;28;45488;-66
2022/12/23 04:42:44;;;;;;;;;1.00;1.00;;;;;13.12;90.74;99951.91;5038230;28;46297;-64
2022/12/23 04:45:09;;;;;;;;;1.50;1.50;;;;;13.26;90.58;99977.50;5039129;28;45316;-63
2022/12/23 04:47:35;;;;;;;;;1.00;1.00;;;;;13.27;90.87;99987.13;5038647;28;45331;-63
2022/12/23 04:50:00;;;;;;;;;2.50;2.50;;;;;13.27;91.01;99976.56;5038021;28;45265;-62
2022/12/23 04:52:26;;;;;;;;;1.25;1.25;;;;;13.24;91.18;99968.78;5037610;28;46137;-62
2022/12/23 04:54:51;;;;;;;;;3.00;3.00;;;;;13.27;91.09;99979.19;5019775;28;45273;-62
2022/12/23 04:57:16;;;;;;;;;4.00;4.00;;;;;13.28;91.10;99965.06;5037723;28;45339;-63
2022/12/23 04:59:42;;;;;;;;;2.50;2.50;;;;;13.27;91.17;99958.91;5038470;28;45320;-62
2022/12/23 05:02:07;;;;;;;;;2.00;2.00;;;;;13.29;91.33;99956.19;5037901;28;45983;-63
2022/12/23 05:04:32;;;;;;;;;3.00;3.00;;;;;13.25;91.25;99950.22;5037584;28;56451;-63
2022/12/23 05:06:58;;;;;;;;;2.50;2.50;;;;;13.29;91.30;99957.00;5037829;28;45206;-63
2022/12/23 05:09:23;;;;;;;;;2.00;2.00;;;;;13.30;91.36;99958.72;5037992;28;45197;-69
2022/12/23 05:11:49;;;;;;;;;3.50;3.50;;;;;13.32;91.75;99963.06;5037569;28;53554;-66
2022/12/23 05:14:14;;;;;;;;;2.00;2.00;;;;;13.34;91.91;99966.44;5038304;28;45372;-67
2022/12/23 05:16:39;;;;;;;;;3.00;3.00;;;;;13.34;91.62;99956.75;5037999;28;45395;-68
2022/12/23 05:19:04;;;;;;;;;3.25;3.25;;;;;13.37;91.60;99961.84;5020415;28;49228;-66
2022/12/23 05:21:30;;;;;;;;;2.50;2.00;;;;;13.38;91.67;99960.03;5037753;28;45356;-67
2022/12/23 05:23:56;;;;;;;;;4.00;4.00;;;;;13.43;91.70;99956.22;5036777;28;52002;-69
2022/12/23 05:26:21;;;;;;;;;4.50;4.50;;;;;13.38;91.77;99936.25;5037368;28;45356;-65
2022/12/23 05:28:47;;;;;;;;;3.50;3.50;;;;;13.12;91.68;99899.94;5037828;28;45396;-67
2022/12/23 05:31:12;;;;;;;;;3.50;3.50;;;;;13.49;91.79;99944.38;5038514;28;45362;-67
2022/12/23 05:33:38;;;;;;;;;3.25;3.25;;;;;13.46;91.54;99946.38;5037228;28;45392;-69
2022/12/23 05:36:04;;;;;;;;;5.50;5.50;;;;;13.52;91.45;99946.84;5037229;28;45382;-63
2022/12/23 05:38:29;;;;;;;;;3.50;3.50;;;;;13.52;91.53;99951.28;5037317;28;45523;-63
2022/12/23 05:40:55;;;;;;;;;3.00;3.00;;;;;13.51;91.56;99950.44;5036999;28;45229;-64
2022/12/23 05:43:21;;;;;;;;;3.75;3.75;;;;;13.50;91.88;99938.16;5037200;28;45348;-62
2022/12/23 05:45:48;;;;;;;;;2.00;2.00;;;;;13.52;91.97;99938.91;5037486;28;45444;-69
2022/12/23 05:48:13;;;;;;;;;8.00;8.00;;;;;13.53;92.26;99932.69;5037530;28;45554;-68
2022/12/23 05:50:39;;;;;;;;;1.75;1.75;;;;;13.53;92.14;99927.41;5036979;28;45238;-71
2022/12/23 05:53:05;;;;;;;;;2.00;2.00;;;;;13.53;92.40;99922.13;5019193;28;45447;-68
2022/12/23 05:55:31;;;;;;;;;2.00;2.00;;;;;13.52;92.39;99911.66;5037065;28;45366;-66
2022/12/23 05:57:56;;;;;;;;;3.50;3.50;;;;;13.49;92.79;99909.22;5037072;28;45328;-70
2022/12/23 06:00:22;;;;;;;;;4.00;4.00;;;;;13.50;92.99;99918.84;5036852;28;45596;-69
2022/12/23 06:02:47;;;;;;;;;4.00;4.00;;;;;13.43;93.21;99902.50;5036907;28;45436;-70
2022/12/23 06:05:13;;;;;;;;;2.75;2.75;;;;;13.42;93.52;99908.72;5036878;28;45436;-70
2022/12/23 06:07:39;;;;;;;;;4.50;3.00;;;;;13.48;93.54;99924.19;5036865;28;45539;-70
2022/12/23 06:10:06;;;;;;;;;4.00;2.00;;;;;13.47;93.72;99917.22;5036821;28;46359;-68
2022/12/23 06:12:31;;;;;;;;;2.75;2.75;;;;;13.46;93.96;99923.44;5036334;28;45316;-68
2022/12/23 06:14:57;;;;;;;;;8.50;8.50;;;;;13.44;94.45;99922.69;5036622;28;45312;-69
2022/12/23 06:17:22;;;;;;;;;4.00;4.00;;;;;13.38;94.90;99907.19;5037818;28;45429;-68
2022/12/23 06:19:48;;;;;;;;;2.25;2.25;;;;;13.34;94.71;99888.06;5036746;28;45524;-65
2022/12/23 06:22:14;;;;;;;;;5.00;5.00;;;;;13.46;95.04;99915.53;5036086;28;45338;-69
2022/12/23 06:24:39;;;;;;;;;7.50;7.50;;;;;13.47;95.09;99919.84;5036822;28;45515;-68
2022/12/23 06:27:05;;;;;;;;;4.75;4.75;;;;;13.46;95.18;99915.53;5036562;28;45400;-69
2022/12/23 06:29:30;;;;;;;;;3.50;3.50;;;;;13.44;95.38;99912.13;5036688;28;46306;-68
2022/12/23 06:31:56;;;;;;;;;3.00;3.00;;;;;13.47;95.51;99921.66;5036937;28;45404;-69
2022/12/23 06:34:21;;;;;;;;;3.50;3.50;;;;;13.45;95.25;99919.09;5036583;28;47096;-64
2022/12/23 06:36:47;;;;;;;;;4.00;4.00;;;;;13.44;95.41;99910.34;5036350;28;45573;-70
2022/12/23 06:39:12;;;;;;;;;4.25;4.25;;;;;13.43;95.55;99900.72;5036455;28;47151;-68
2022/12/23 06:41:37;;;;;;;;;2.50;2.50;;;;;13.46;95.35;99897.03;5036108;28;45351;-70
2022/12/23 06:44:03;;;;;;;;;3.75;3.75;;;;;13.48;95.82;99897.78;5036331;28;45430;-69
2022/12/23 06:46:28;;;;;;;;;4.00;4.00;;;;;13.47;95.79;99900.53;5036196;28;45559;-70
2022/12/23 06:48:53;;;;;;;;;2.00;2.00;;;;;13.47;95.99;99895.25;5035492;28;63165;-69
2022/12/23 06:51:19;;;;;;;;;4.75;4.75;;;;;13.47;96.41;99890.78;5036159;28;45308;-63
2022/12/23 06:53:44;;;;;;;;;3.25;3.25;;;;;13.47;95.86;99890.78;5035917;28;45540;-64
2022/12/23 06:56:09;;;;;;;;;2.75;2.75;;;;;13.43;95.94;99878.72;5036264;28;45587;-65
2022/12/23 06:58:35;;;;;;;;;3.00;3.00;;;;;13.48;96.18;99881.94;5035582;28;46193;-65
2022/12/23 07:01:00;;;;;;;;;3.00;3.00;;;;;13.51;96.24;99883.53;5035852;28;45253;-65
2022/12/23 07:03:26;;;;;;;;;2.00;2.00;;;;;13.55;96.01;99874.47;5037177;28;45324;-66
2022/12/23 07:05:52;;;;;;;;;5.00;5.00;;;;;13.49;96.12;99859.84;5037219;28;45225;-62
2022/12/23 07:08:18;;;;;;;;;6.00;6.00;;;;;13.57;95.92;99875.22;5036294;28;45242;-62
2022/12/23 07:10:43;;;;;;;;;3.75;3.75;;;;;13.54;96.00;99865.69;5035631;28;45342;-64
2022/12/23 07:13:09;;;;;;;;;3.00;3.00;;;;;13.57;95.96;99867.28;5035517;28;45322;-66
2022/12/23 07:15:36;;;;;;;;;3.75;3.75;;;;;13.58;95.89;99872.47;5017772;28;45459;-65
2022/12/23 07:18:01;;;;;;;;;4.00;4.00;;;;;13.56;96.04;99861.16;5035062;28;45459;-64
2022/12/23 07:20:26;;;;;;;;;3.25;3.25;;;;;13.59;96.02;99862.75;5034950;28;45438;-64
2022/12/23 07:22:56;;;;;;;;;2.00;2.00;;;;;13.61;95.77;99860.00;5035197;28;45506;-63
2022/12/23 07:25:21;;;;;;;;;4.00;4.00;;;;;13.61;95.89;99858.22;5035553;28;45224;-65
2022/12/23 07:27:47;;;;;;;;;0.50;0.50;;;;;13.62;95.64;99857.28;5034919;28;46074;-64
2022/12/23 07:30:12;;;;;;;;;4.75;4.75;;;;;13.64;95.59;99846.59;5034934;28;45313;-68
2022/12/23 07:32:38;;;;;;;;;1.00;1.00;;;;;13.53;95.68;99831.44;5017538;28;45398;-68
2022/12/23 07:35:03;;;;;;;;;1.75;1.75;;;;;13.67;95.46;99856.97;5035415;28;45493;-68
2022/12/23 07:37:29;;;;;;;;;2.00;2.00;;;;;13.67;95.62;99844.59;5035006;28;45301;-69
2022/12/23 07:39:54;;;;;;;;;3.25;3.25;;;;;13.69;95.55;99857.72;5035360;28;45251;-67
2022/12/23 07:42:20;;;;;;;;;2.00;2.00;;;;;13.69;95.45;99860.34;5035718;28;45387;-67
2022/12/23 07:44:46;;;;;;;;;2.00;2.00;;;;;13.70;95.72;99856.75;5035469;28;45675;-71
2022/12/23 07:47:11;;;;;;;;;1.25;1.25;;;;;13.70;95.24;99864.69;5034931;28;46468;-66
2022/12/23 07:49:36;;;;;;;;;1.00;1.00;;;;;13.65;94.93;99843.00;5035419;28;45409;-66
2022/12/23 07:52:02;;;;;;;;;1.00;1.00;;;;;13.63;95.21;99842.25;5036144;28;45427;-68
2022/12/23 07:54:27;;;;;;;;;1.00;1.00;;;;;13.70;95.00;99844.41;5034833;28;45336;-64
2022/12/23 07:56:52;;;;;;;;;2.00;2.00;;;;;13.75;95.24;99856.47;5035406;28;50597;-65
2022/12/23 07:59:17;;;;;;;;;1.00;1.00;;;;;13.71;95.14;99856.69;5035283;28;45315;-64
2022/12/23 08:01:43;;;;;;;;;1.25;1.25;;;;;13.78;94.76;99845.69;5034973;28;45485;-65
2022/12/23 08:04:08;;;;;;;;;1.00;1.00;;;;;13.75;94.71;99844.09;5035099;28;45395;-67
2022/12/23 08:06:35;;;;;;;;;0.50;0.50;;;;;13.73;94.54;99835.41;5034545;28;45527;-64
2022/12/23 08:09:01;;;;;;;;;0.75;0.75;;;;;13.82;94.61;99845.41;5034737;28;45349;-66
2022/12/23 08:11:26;;;;;;;;;1.00;1.00;;;;;13.81;94.79;99845.50;5035005;28;45361;-65
2022/12/23 08:13:51;;;;;;;;;2.00;2.00;;;;;13.83;94.13;99847.09;5035502;28;45150;-65
2022/12/23 08:16:17;;;;;;;;;1.00;1.00;;;;;13.86;94.08;99846.91;5034444;28;52826;-66
2022/12/23 08:18:43;;;;;;;;;1.00;1.00;;;;;13.86;93.93;99852.19;5034837;28;45320;-62
2022/12/23 08:21:14;;;;;;;;;2.00;2.00;;;;;13.67;94.00;99804.09;5034763;28;45276;-63
2022/12/23 08:23:40;;;;;;;;;1.00;1.00;;;;;13.87;93.75;99827.44;5035247;28;45474;-62
2022/12/23 08:26:08;;;;;;;;;0.75;0.75;;;;;13.90;93.78;99822.91;5034118;28;46208;-63
2022/12/23 08:28:35;;;;;;;;;2.00;2.00;;;;;13.91;93.73;99812.22;5034288;28;45242;-64
2022/12/23 08:31:09;;;;;;;;;1.00;1.00;;;;;13.93;93.64;99812.97;5016420;28;45445;-65
2022/12/23 08:33:37;;;;;;;;;1.75;1.75;;;;;13.91;93.60;99808.75;5034785;28;45368;-65
2022/12/23 08:36:03;;;;;;;;;1.75;1.75;;;;;13.96;93.54;99825.97;5034096;28;47007;-64
2022/12/23 08:38:29;;;;;;;;;0.00;0.00;;;;;13.98;93.18;99816.16;5034539;28;45308;-63
2022/12/23 08:40:54;;;;;;;;;1.75;1.75;;;;;14.00;93.41;99813.41;5035586;28;45255;-63
2022/12/23 08:43:19;;;;;;;;;1.25;1.25;;;;;13.97;93.40;99811.81;5035221;28;45333;-62
2022/12/23 08:45:44;;;;;;;;;1.00;1.00;;;;;14.03;92.93;99813.22;5034280;28;56254;-67
2022/12/23 08:48:11;;;;;;;;;1.00;1.00;;;;;13.97;93.04;99798.59;5034111;28;45294;-69
2022/12/23 08:50:37;;;;;;;;;2.25;2.25;;;;;14.04;93.01;99801.69;5034249;28;45274;-67
2022/12/23 08:53:03;;;;;;;;;1.00;1.00;;;;;14.02;93.17;99790.38;5034331;28;45503;-69
2022/12/23 08:55:29;;;;;;;;;2.00;2.00;;;;;14.06;92.73;99791.84;5034141;28;46159;-66
2022/12/23 08:57:54;;;;;;;;;0.25;0.25;;;;;14.09;93.06;99781.06;5034177;28;52666;-67
2022/12/23 09:00:19;;;;;;;;;2.00;2.00;;;;;14.10;92.73;99773.97;5036420;28;45443;-63
2022/12/23 09:02:45;;;;;;;;;1.00;1.00;;;;;14.11;92.68;99776.50;5037757;28;45555;-69
2022/12/23 09:05:10;;;;;;;;;1.00;1.00;;;;;14.11;92.79;99771.22;5019583;28;47172;-69
2022/12/23 09:07:36;;;;;;;;;1.00;1.00;;;;;14.13;93.07;99761.38;5036805;28;61453;-67
2022/12/23 09:10:01;;;;;;;;;1.25;1.25;;;;;14.12;92.80;99742.97;5037746;28;45281;-68
2022/12/23 09:12:26;;;;;;;;;3.50;3.50;;;;;14.13;92.61;99712.94;5038134;28;45461;-69
2022/12/23 09:14:52;;;;;;;;;2.00;2.00;;;;;14.14;92.60;99693.47;5037364;28;45484;-68
2022/12/23 09:17:17;;;;;;;;;1.00;1.00;;;;;14.10;92.62;99699.91;5037309;28;45503;-71
2022/12/23 09:19:42;;;;;;;;;3.75;3.75;;;;;14.13;92.48;99703.22;5037310;28;45813;-69
2022/12/23 09:22:08;;;;;;;;;1.00;1.00;;;;;14.14;92.51;99704.91;5038523;28;45320;-69
2022/12/23 09:24:34;;;;;;;;;2.00;2.00;;;;;14.15;92.05;99722.47;5038454;28;46414;-68
2022/12/23 09:26:59;;;;;;;;;2.00;2.00;;;;;14.14;92.49;99726.06;5037970;28;45384;-69
2022/12/23 09:29:25;;;;;;;;;1.00;1.00;;;;;14.19;92.31;99735.47;5020032;28;45258;-67
2022/12/23 09:31:50;;;;;;;;;2.25;2.25;;;;;14.19;92.04;99743.41;5037891;28;45387;-70
2022/12/23 09:34:15;;;;;;;;;1.00;1.00;;;;;14.21;92.37;99744.97;5019267;28;48196;-70
2022/12/23 09:36:41;;;;;;;;;1.00;1.00;;;;;14.21;92.23;99752.91;5037567;28;45231;-70
2022/12/23 09:39:06;;;;;;;;;2.00;2.00;;;;;14.22;92.25;99756.41;5037852;28;45379;-68
2022/12/23 09:42:13;;;;;;;;;1.00;1.00;;;;;14.24;92.19;99759.81;5037269;28;45525;-65
2022/12/23 09:44:46;;;;;;;;;1.00;1.00;;;;;14.25;92.26;99786.13;5036399;28;46335;-68
2022/12/23 09:47:20;;;;;;;;;1.00;1.00;;;;;14.26;91.78;99790.47;5036762;28;45346;-67
2022/12/23 09:49:55;;;;;;;;;1.00;1.00;;;;;14.29;91.91;99781.50;5037395;28;45289;-69
2022/12/23 09:52:32;;;;;;;;;1.00;1.00;;;;;14.29;91.71;99776.19;5036918;28;45465;-68
2022/12/23 09:54:58;;;;;;;;;1.75;1.75;;;;;14.29;91.78;99765.63;5018583;28;47364;-70
2022/12/23 09:57:46;;;;;;;;;1.00;1.00;;;;;14.34;91.62;99768.78;5018276;28;45348;-69
2022/12/23 10:00:18;;;;;;;;;2.50;2.50;;;;;14.36;91.36;99782.75;5036620;28;45439;-68
2022/12/23 10:03:11;;;;;;;;;1.00;1.00;;;;;14.39;91.19;99773.78;5036610;28;45335;-64
2022/12/23 10:05:59;;;;;;;;;1.00;1.00;;;;;14.40;91.21;99773.66;5036483;28;47242;-69
2022/12/23 10:08:50;;;;;;;;;3.50;3.50;;;;;14.39;90.90;99765.84;5018680;28;45644;-69
2022/12/23 10:11:34;;;;;;;;;1.00;1.00;;;;;14.46;90.57;99777.69;5018610;28;45335;-65
2022/12/23 10:14:19;;;;;;;;;0.00;0.00;;;;;14.50;90.31;99775.66;5037683;28;45310;-67
2022/12/23 10:16:50;;;;;;;;;1.50;1.50;;;;;14.51;90.07;99767.63;5037336;28;46212;-66
2022/12/23 10:19:24;;;;;;;;;1.00;1.00;;;;;14.55;90.43;99771.75;5036157;28;45324;-70
2022/12/23 10:21:57;;;;;;;;;2.00;2.00;;;;;14.60;90.23;99752.91;5036407;28;45166;-69
2022/12/23 10:24:37;;;;;;;;;2.75;2.75;;;;;14.64;89.74;99742.97;5036229;28;45230;-63
2022/12/23 10:27:27;;;;;;;;;1.00;1.00;;;;;14.65;89.58;99745.47;5036344;28;45357;-68
2022/12/23 10:29:53;;;;;;;;;1.25;1.25;;;;;14.65;89.91;99747.28;5036303;28;45187;-67
2022/12/23 10:32:51;;;;;;;;;1.50;1.50;;;;;14.52;90.34;99726.13;5037684;28;45831;-68
2022/12/23 10:35:34;;;;;;;;;0.25;0.25;;;;;14.64;90.91;99759.66;5036404;28;45361;-69
2022/12/23 10:38:18;;;;;;;;;2.00;2.00;;;;;14.61;91.25;99759.88;5036226;28;46239;-70
2022/12/23 10:40:50;;;;;;;;;2.50;2.50;;;;;14.57;91.86;99753.13;5038231;28;45335;-68
2022/12/23 10:43:52;;;;;;;;;1.25;1.25;;;;;14.53;91.96;99754.28;5021846;28;45246;-67
2022/12/23 10:46:26;;;;;;;;;1.00;1.00;;;;;14.48;92.31;99759.91;5036364;28;45495;-69
2022/12/23 10:49:06;;;;;;;;;1.00;1.00;;;;;14.45;92.69;99766.25;5035620;28;46246;-68
2022/12/23 10:51:56;;;;;;;;;1.00;1.00;;;;;14.44;92.86;99758.44;5035992;28;45259;-69
2022/12/23 10:54:42;;;;;;;;;1.00;1.00;;;;;14.42;92.89;99758.53;5035599;28;45326;-68
2022/12/23 10:57:08;;;;;;;;;1.00;1.00;;;;;14.44;92.48;99748.69;5036646;28;45427;-69
2022/12/23 10:59:35;;;;;;;;;5.00;5.00;;;;;14.45;92.39;99739.78;5035925;28;46102;-69
2022/12/23 11:02:06;;;;;;;;;2.00;2.00;;;;;14.54;92.15;99743.59;5035857;28;45416;-69
2022/12/23 11:04:36;;;;;;;;;2.25;2.25;;;;;14.59;92.27;99714.16;5035924;28;45258;-69
2022/12/23 11:07:02;;;;;;;;;3.50;3.50;;;;;14.65;91.61;99726.94;5036110;28;45230;-70
2022/12/23 11:09:40;;;;;;;;;4.50;4.50;;;;;14.71;91.42;99733.66;5035447;28;45309;-64
2022/12/23 11:12:10;;;;;;;;;5.50;5.50;;;;;14.70;90.68;99730.16;5035320;28;45399;-64
2022/12/23 11:14:52;;;;;;;;;2.75;2.75;;;;;14.79;90.47;99749.84;5035155;28;45466;-66
2022/12/23 11:17:25;;;;;;;;;2.75;2.75;;;;;14.81;89.92;99745.28;5035449;28;45539;-70
2022/12/23 11:20:09;;;;;;;;;1.00;1.00;;;;;14.86;89.72;99766.16;5035304;28;46291;-70
2022/12/23 11:22:36;;;;;;;;;1.25;1.25;;;;;14.87;88.87;99755.44;5035166;28;45298;-70
2022/12/23 11:25:26;;;;;;;;;1.25;1.25;;;;;14.92;88.88;99775.44;5017956;28;45404;-68
2022/12/23 11:28:09;;;;;;;;;1.00;1.00;;;;;14.93;88.30;99759.44;5035113;28;45229;-69
2022/12/23 11:30:44;;;;;;;;;3.75;3.75;;;;;14.93;88.29;99758.59;5035495;28;45352;-65
2022/12/23 11:33:23;;;;;;;;;1.00;1.00;;;;;15.00;87.74;99773.94;5017323;28;45290;-67
2022/12/23 11:36:00;;;;;;;;;0.00;0.00;;;;;15.02;86.98;99764.09;5035523;28;45270;-68
2022/12/23 11:38:25;;;;;;;;;0.50;0.50;;;;;15.07;86.81;99765.56;5035468;28;45389;-71
2022/12/23 11:40:51;;;;;;;;;2.00;2.00;;;;;15.11;87.08;99767.03;5035653;28;46118;-65
2022/12/23 11:43:17;;;;;;;;;3.25;3.25;;;;;15.16;86.60;99767.53;5035638;28;45378;-69
2022/12/23 11:45:43;;;;;;;;;2.00;2.00;;;;;15.22;86.07;99764.44;5018127;28;45396;-71
2022/12/23 11:48:27;;;;;;;;;3.00;3.00;;;;;15.25;85.80;99761.56;5035222;28;45491;-70
2022/12/23 11:51:02;;;;;;;;;4.75;3.50;;;;;15.29;85.45;99762.16;5034861;28;45674;-70
2022/12/23 11:53:27;;;;;;;;;3.00;3.00;;;;;15.28;85.13;99750.75;5034797;28;45436;-69
2022/12/23 11:56:03;;;;;;;;;3.00;3.00;;;;;15.30;85.13;99747.97;5034945;28;45368;-68
2022/12/23 11:58:34;;;;;;;;;1.00;1.00;;;;;15.37;84.63;99756.31;5035316;28;45309;-69
2022/12/23 12:01:07;;;;;;;;;0.75;0.75;;;;;15.42;84.11;99763.00;5034368;28;45496;-67
2022/12/23 12:03:42;;;;;;;;;2.50;2.50;;;;;15.50;84.08;99756.28;5034249;28;45308;-68
2022/12/23 12:06:13;;;;;;;;;2.25;2.25;;;;;15.57;83.42;99747.75;5035081;28;45351;-69
2022/12/23 12:08:40;;;;;;;;;3.25;3.00;;;;;15.61;83.06;99746.53;5035166;28;45383;-63
2022/12/23 12:11:18;;;;;;;;;5.00;5.00;;;;;15.69;82.46;99734.53;5035245;28;45207;-63
2022/12/23 12:13:47;;;;;;;;;2.00;2.00;;;;;15.74;82.18;99748.28;5034686;28;45407;-70
2022/12/23 12:16:42;;;;;;;;;4.00;4.00;;;;;15.73;81.55;99749.22;5035055;28;45296;-67